Time;durP1;ratioP1;P1;durP2;ratioP2;P2;SDS_P1;SDS_P2;PMS_P1;PMS_P2;Temp;Humidity;BMP_temperature;BMP_pressure;BME280_temperature;BME280_humidity;BME280_pressure;Samples;Min_cycle;Max_cycle;Signal;HPM_P1;HPM_P2
2023/09/20 00:02:17;;;;;;;0.00;0.00;;;;;;;;;;5006299;28;20045;-74
2023/09/20 00:04:47;;;;;;;0.00;0.00;;;;;;;;;;5005924;28;20046;-74
2023/09/20 00:07:16;;;;;;;0.00;0.00;;;;;;;;;;5002990;28;20038;-74
2023/09/20 00:09:43;;;;;;;0.00;0.00;;;;;;;;;;5006643;28;20058;-73
2023/09/20 00:12:11;;;;;;;0.20;0.20;;;;;;;;;;5001344;28;20038;-73
2023/09/20 00:14:38;;;;;;;0.00;0.00;;;;;;;;;;5001658;28;20424;-74
2023/09/20 00:17:06;;;;;;;0.00;0.00;;;;;;;;;;5001639;28;20060;-73
2023/09/20 00:19:38;;;;;;;0.00;0.00;;;;;;;;;;5006320;28;20046;-73
2023/09/20 00:22:05;;;;;;;2.95;2.72;;;;;;;;;;5021805;28;20128;-73
2023/09/20 00:24:33;;;;;;;0.25;0.10;;;;;;;;;;5005047;28;20057;-75
2023/09/20 00:27:01;;;;;;;0.00;0.00;;;;;;;;;;5003811;28;20516;-73
2023/09/20 00:29:28;;;;;;;0.00;0.00;;;;;;;;;;5006001;28;20128;-75
2023/09/20 00:31:56;;;;;;;0.20;0.20;;;;;;;;;;5005000;28;20563;-73
2023/09/20 00:34:24;;;;;;;0.00;0.00;;;;;;;;;;5000488;28;20057;-73
2023/09/20 00:36:51;;;;;;;0.00;0.00;;;;;;;;;;4998274;28;20107;-74
2023/09/20 00:39:19;;;;;;;1.20;1.20;;;;;;;;;;5004518;28;20050;-74
2023/09/20 00:41:48;;;;;;;0.00;0.00;;;;;;;;;;5005025;28;20054;-73
2023/09/20 00:44:17;;;;;;;0.10;0.10;;;;;;;;;;5004605;28;20077;-74
2023/09/20 00:46:46;;;;;;;0.30;0.30;;;;;;;;;;5005831;28;20042;-74
2023/09/20 00:49:13;;;;;;;0.00;0.00;;;;;;;;;;5021072;28;20046;-74
2023/09/20 00:51:47;;;;;;;0.10;0.10;;;;;;;;;;5004578;28;20428;-74
2023/09/20 00:54:16;;;;;;;0.00;0.00;;;;;;;;;;5003581;28;20416;-74
2023/09/20 00:56:43;;;;;;;0.15;0.15;;;;;;;;;;5004775;28;20115;-75
2023/09/20 00:59:12;;;;;;;0.00;0.00;;;;;;;;;;5004003;28;20046;-75
2023/09/20 01:01:40;;;;;;;0.00;0.00;;;;;;;;;;4988842;28;20100;-75
2023/09/20 01:04:08;;;;;;;0.00;0.00;;;;;;;;;;5006582;28;20058;-73
2023/09/20 01:06:37;;;;;;;0.00;0.00;;;;;;;;;;5005876;28;20057;-74
2023/09/20 01:09:04;;;;;;;0.00;0.00;;;;;;;;;;5017030;28;20562;-74
2023/09/20 01:11:32;;;;;;;0.10;0.10;;;;;;;;;;5003301;28;20050;-74
2023/09/20 01:14:00;;;;;;;0.05;0.05;;;;;;;;;;5004573;28;20046;-74
2023/09/20 01:16:27;;;;;;;0.00;0.00;;;;;;;;;;5003215;28;20050;-74
2023/09/20 01:18:55;;;;;;;0.00;0.00;;;;;;;;;;5002358;28;20503;-75
2023/09/20 01:21:22;;;;;;;1.08;1.08;;;;;;;;;;5005312;28;20053;-74
2023/09/20 01:23:50;;;;;;;0.20;0.20;;;;;;;;;;5002915;28;20068;-74
2023/09/20 01:26:17;;;;;;;0.00;0.00;;;;;;;;;;5001886;28;20566;-73
2023/09/20 01:28:45;;;;;;;0.03;0.03;;;;;;;;;;5004344;28;20419;-73
2023/09/20 01:31:13;;;;;;;0.00;0.00;;;;;;;;;;5001027;28;20056;-73
2023/09/20 01:33:41;;;;;;;0.00;0.00;;;;;;;;;;5004065;28;20050;-73
2023/09/20 01:36:09;;;;;;;0.00;0.00;;;;;;;;;;5004128;28;20042;-73
2023/09/20 01:38:37;;;;;;;16.10;15.23;;;;;;;;;;5003421;28;20061;-73
2023/09/20 01:41:05;;;;;;;0.00;0.00;;;;;;;;;;5001359;28;20046;-74
2023/09/20 01:43:34;;;;;;;0.00;0.00;;;;;;;;;;5002506;28;20057;-73
2023/09/20 01:46:03;;;;;;;0.10;0.10;;;;;;;;;;5005548;28;20049;-73
2023/09/20 01:48:31;;;;;;;0.00;0.00;;;;;;;;;;5002741;28;20107;-74
2023/09/20 01:50:59;;;;;;;0.38;0.28;;;;;;;;;;5004918;28;20056;-73
2023/09/20 01:53:26;;;;;;;26.52;24.95;;;;;;;;;;5004759;28;20084;-74
2023/09/20 01:55:54;;;;;;;0.00;0.00;;;;;;;;;;5001547;28;20050;-73
2023/09/20 01:58:23;;;;;;;0.00;0.00;;;;;;;;;;5000114;28;20096;-73
2023/09/20 02:00:51;;;;;;;0.00;0.00;;;;;;;;;;5016138;28;20520;-74
2023/09/20 02:03:19;;;;;;;0.05;0.05;;;;;;;;;;5004713;28;20068;-74
2023/09/20 02:05:48;;;;;;;0.28;0.28;;;;;;;;;;5000821;28;20133;-73
2023/09/20 02:08:17;;;;;;;0.70;0.70;;;;;;;;;;5003698;28;20054;-75
2023/09/20 02:10:46;;;;;;;0.20;0.17;;;;;;;;;;5001098;28;20861;-73
2023/09/20 02:13:15;;;;;;;0.00;0.00;;;;;;;;;;5003375;28;20041;-73
2023/09/20 02:15:44;;;;;;;0.10;0.10;;;;;;;;;;5003450;28;20097;-73
2023/09/20 02:18:12;;;;;;;0.05;0.05;;;;;;;;;;5001406;28;20149;-73
2023/09/20 02:20:39;;;;;;;0.20;0.20;;;;;;;;;;5002573;28;20048;-74
2023/09/20 02:23:12;;;;;;;0.00;0.00;;;;;;;;;;5003344;28;20049;-75
2023/09/20 02:25:43;;;;;;;0.00;0.00;;;;;;;;;;5002783;28;20046;-75
2023/09/20 02:28:11;;;;;;;0.00;0.00;;;;;;;;;;5001823;28;20050;-73
2023/09/20 02:30:39;;;;;;;0.30;0.30;;;;;;;;;;5003897;28;20144;-73
2023/09/20 02:33:08;;;;;;;0.00;0.00;;;;;;;;;;5028754;22;20053;-71
2023/09/20 02:35:37;;;;;;;0.05;0.05;;;;;;;;;;5019738;28;20041;-70
2023/09/20 02:38:05;;;;;;;0.00;0.00;;;;;;;;;;5025418;28;20053;-70
2023/09/20 02:40:35;;;;;;;0.00;0.00;;;;;;;;;;5014944;28;20614;-73
2023/09/20 02:43:10;;;;;;;0.00;0.00;;;;;;;;;;5014124;28;21127;-73
2023/09/20 02:45:39;;;;;;;0.00;0.00;;;;;;;;;;5016937;28;20045;-72
2023/09/20 02:48:08;;;;;;;4.20;0.93;;;;;;;;;;5024421;28;20046;-72
2023/09/20 02:50:37;;;;;;;0.47;0.47;;;;;;;;;;5018827;28;20132;-72
2023/09/20 02:53:05;;;;;;;2.63;1.58;;;;;;;;;;5024132;28;20136;-71
2023/09/20 02:55:34;;;;;;;0.90;0.90;;;;;;;;;;5024775;28;20041;-72
2023/09/20 02:58:02;;;;;;;0.43;0.43;;;;;;;;;;5018176;28;20096;-73
2023/09/20 03:00:31;;;;;;;2.10;1.77;;;;;;;;;;5019596;28;20091;-72
2023/09/20 03:03:07;;;;;;;1.02;1.02;;;;;;;;;;5018576;28;20107;-72
2023/09/20 03:05:36;;;;;;;0.32;0.32;;;;;;;;;;5017128;28;20065;-73
2023/09/20 03:08:12;;;;;;;0.35;0.35;;;;;;;;;;5019261;28;20057;-72
2023/09/20 03:10:44;;;;;;;1.00;0.90;;;;;;;;;;5017546;28;20068;-73
2023/09/20 03:13:16;;;;;;;2.05;1.90;;;;;;;;;;5024937;28;20056;-72
2023/09/20 03:15:48;;;;;;;0.88;0.85;;;;;;;;;;5018890;28;20052;-72
2023/09/20 03:18:22;;;;;;;1.65;1.55;;;;;;;;;;5024730;28;20045;-75
2023/09/20 03:21:05;;;;;;;7.03;3.78;;;;;;;;;;5020910;28;20037;-74
2023/09/20 03:23:33;;;;;;;1.50;1.00;;;;;;;;;;5024357;28;20041;-73
2023/09/20 03:26:02;;;;;;;9.57;0.98;;;;;;;;;;5021833;28;20057;-72
2023/09/20 03:28:33;;;;;;;1.00;0.65;;;;;;;;;;5019479;28;20060;-73
2023/09/20 03:31:07;;;;;;;3.47;3.28;;;;;;;;;;5024515;28;20045;-75
2023/09/20 03:33:35;;;;;;;2.65;1.35;;;;;;;;;;5020946;28;20361;-72
2023/09/20 03:36:15;;;;;;;1.25;1.10;;;;;;;;;;5028862;28;20041;-73
2023/09/20 03:38:45;;;;;;;8.23;7.67;;;;;;;;;;5020892;28;20052;-75
2023/09/20 03:41:13;;;;;;;3.67;3.38;;;;;;;;;;5022201;28;20057;-73
2023/09/20 03:43:45;;;;;;;2.05;1.50;;;;;;;;;;5016189;28;20128;-74
2023/09/20 03:46:13;;;;;;;;;;;;;;;;;;5022880;28;20404;-73
2023/09/20 03:48:41;;;;;;;2.85;2.65;;;;;;;;;;5015810;28;19940;-74
2023/09/20 03:51:15;;;;;;;1.55;1.45;;;;;;;;;;5019449;28;20116;-75
2023/09/20 03:53:43;;;;;;;0.00;0.00;;;;;;;;;;5023513;28;20041;-74
2023/09/20 03:56:13;;;;;;;0.55;0.55;;;;;;;;;;5039478;28;20442;-73
2023/09/20 03:58:41;;;;;;;1.60;1.00;;;;;;;;;;5014875;28;20125;-73
2023/09/20 04:01:10;;;;;;;0.65;0.65;;;;;;;;;;5015454;28;20052;-73
2023/09/20 04:03:37;;;;;;;0.20;0.20;;;;;;;;;;5019742;28;20048;-73
2023/09/20 04:06:05;;;;;;;0.10;0.10;;;;;;;;;;5012786;28;20042;-74
2023/09/20 04:08:33;;;;;;;3.65;3.45;;;;;;;;;;5022587;28;20045;-74
2023/09/20 04:11:00;;;;;;;6.78;6.45;;;;;;;;;;5025975;28;20045;-73
2023/09/20 04:13:29;;;;;;;0.00;0.00;;;;;;;;;;5012667;28;20129;-73
2023/09/20 04:15:56;;;;;;;0.00;0.00;;;;;;;;;;5022435;28;20044;-73
2023/09/20 04:18:26;;;;;;;0.52;0.52;;;;;;;;;;5021472;28;20098;-73
2023/09/20 04:20:53;;;;;;;0.10;0.10;;;;;;;;;;5025027;28;20055;-74
2023/09/20 04:23:21;;;;;;;0.20;0.20;;;;;;;;;;5017465;28;20056;-73
2023/09/20 04:25:48;;;;;;;0.00;0.00;;;;;;;;;;5019798;28;20056;-73
2023/09/20 04:28:16;;;;;;;0.00;0.00;;;;;;;;;;5017577;28;20049;-74
2023/09/20 04:30:44;;;;;;;0.80;0.32;;;;;;;;;;5017562;28;20056;-75
2023/09/20 04:33:14;;;;;;;8.30;7.88;;;;;;;;;;5019981;28;20631;-74
2023/09/20 04:35:47;;;;;;;0.10;0.10;;;;;;;;;;5039995;28;20075;-75
2023/09/20 04:38:20;;;;;;;0.40;0.40;;;;;;;;;;5016524;28;20442;-75
2023/09/20 04:40:48;;;;;;;2.28;2.17;;;;;;;;;;5011655;28;20037;-72
2023/09/20 04:43:15;;;;;;;0.25;0.25;;;;;;;;;;5020904;28;20053;-71
2023/09/20 04:45:44;;;;;;;0.10;0.10;;;;;;;;;;5017163;28;20064;-73
2023/09/20 04:48:13;;;;;;;0.32;0.32;;;;;;;;;;5021220;28;20054;-74
2023/09/20 04:50:40;;;;;;;0.00;0.00;;;;;;;;;;5023139;28;20049;-72
2023/09/20 04:53:08;;;;;;;0.45;0.45;;;;;;;;;;5021444;28;20536;-72
2023/09/20 04:55:36;;;;;;;1.08;1.08;;;;;;;;;;5011571;28;20038;-75
2023/09/20 04:58:03;;;;;;;0.20;0.20;;;;;;;;;;5013600;28;20077;-73
2023/09/20 05:00:37;;;;;;;0.43;0.43;;;;;;;;;;5012560;28;20038;-74
2023/09/20 05:03:11;;;;;;;0.00;0.00;;;;;;;;;;5029894;28;20049;-72
2023/09/20 05:05:39;;;;;;;3.60;3.40;;;;;;;;;;5015334;28;20136;-72
2023/09/20 05:08:08;;;;;;;0.00;0.00;;;;;;;;;;5013639;28;20099;-72
2023/09/20 05:10:36;;;;;;;0.00;0.00;;;;;;;;;;5014544;28;20041;-73
2023/09/20 05:13:05;;;;;;;0.25;0.25;;;;;;;;;;5015206;28;20045;-72
2023/09/20 05:15:33;;;;;;;0.10;0.10;;;;;;;;;;5011703;28;20569;-73
2023/09/20 05:18:00;;;;;;;5.25;4.88;;;;;;;;;;5008493;28;20515;-72
2023/09/20 05:20:31;;;;;;;0.10;0.10;;;;;;;;;;5003045;28;20430;-74
2023/09/20 05:22:59;;;;;;;0.05;0.05;;;;;;;;;;5012987;28;20041;-73
2023/09/20 05:25:27;;;;;;;0.20;0.20;;;;;;;;;;5017470;28;20048;-75
2023/09/20 05:27:54;;;;;;;0.20;0.17;;;;;;;;;;5015927;28;20085;-73
2023/09/20 05:30:22;;;;;;;0.65;0.32;;;;;;;;;;5018491;28;20141;-73
2023/09/20 05:32:51;;;;;;;0.00;0.00;;;;;;;;;;5015179;28;20111;-70
2023/09/20 05:35:20;;;;;;;0.10;0.10;;;;;;;;;;5013634;28;20507;-69
2023/09/20 05:37:48;;;;;;;0.30;0.30;;;;;;;;;;5016347;28;20057;-68
2023/09/20 05:40:19;;;;;;;6.85;6.15;;;;;;;;;;5007895;28;20049;-70
2023/09/20 05:42:47;;;;;;;24.52;22.05;;;;;;;;;;5009450;28;20447;-70
2023/09/20 05:45:14;;;;;;;26.65;24.65;;;;;;;;;;5009785;28;20108;-70
2023/09/20 05:47:43;;;;;;;11.63;10.73;;;;;;;;;;5016153;28;20045;-70
2023/09/20 05:50:13;;;;;;;0.10;0.10;;;;;;;;;;5016293;28;20410;-70
2023/09/20 05:52:45;;;;;;;0.10;0.10;;;;;;;;;;5006224;28;20056;-68
2023/09/20 05:55:15;;;;;;;0.10;0.10;;;;;;;;;;5020555;28;20054;-69
2023/09/20 05:57:43;;;;;;;1.02;0.32;;;;;;;;;;5016078;28;20070;-70
2023/09/20 06:00:18;;;;;;;0.00;0.00;;;;;;;;;;5017673;28;20045;-69
2023/09/20 06:02:46;;;;;;;0.10;0.10;;;;;;;;;;5014754;28;20060;-68
2023/09/20 06:05:14;;;;;;;0.00;0.00;;;;;;;;;;5014604;28;20068;-68
2023/09/20 06:07:44;;;;;;;0.10;0.10;;;;;;;;;;5015138;28;20512;-69
2023/09/20 06:10:13;;;;;;;5.30;5.00;;;;;;;;;;5011597;28;20303;-69
2023/09/20 06:12:40;;;;;;;0.80;0.30;;;;;;;;;;5017944;28;20500;-69
2023/09/20 06:15:08;;;;;;;0.00;0.00;;;;;;;;;;5013689;28;20420;-69
2023/09/20 06:17:36;;;;;;;0.38;0.38;;;;;;;;;;5016466;28;20557;-69
2023/09/20 06:20:08;;;;;;;0.57;0.45;;;;;;;;;;5021659;28;20078;-69
2023/09/20 06:22:36;;;;;;;0.20;0.20;;;;;;;;;;5019202;28;20038;-69
2023/09/20 06:25:05;;;;;;;0.03;0.03;;;;;;;;;;5020266;28;20461;-70
2023/09/20 06:27:33;;;;;;;0.00;0.00;;;;;;;;;;5016191;28;20056;-70
2023/09/20 06:30:06;;;;;;;0.30;0.30;;;;;;;;;;5015274;28;20045;-69
2023/09/20 06:32:34;;;;;;;0.63;0.63;;;;;;;;;;5019826;28;20052;-68
2023/09/20 06:35:04;;;;;;;0.10;0.10;;;;;;;;;;5019818;28;20500;-69
2023/09/20 06:37:33;;;;;;;10.40;9.43;;;;;;;;;;5016488;28;20064;-69
2023/09/20 06:40:02;;;;;;;0.00;0.00;;;;;;;;;;5015079;28;20052;-69
2023/09/20 06:42:30;;;;;;;0.20;0.20;;;;;;;;;;5014403;28;20124;-70
2023/09/20 06:44:57;;;;;;;0.13;0.13;;;;;;;;;;5023387;28;20053;-70
2023/09/20 06:47:25;;;;;;;0.03;0.03;;;;;;;;;;5016123;28;20507;-70
2023/09/20 06:49:53;;;;;;;0.65;0.43;;;;;;;;;;5023204;28;20056;-69
2023/09/20 06:52:20;;;;;;;0.63;0.30;;;;;;;;;;5015964;28;20061;-69
2023/09/20 06:54:48;;;;;;;5.60;5.20;;;;;;;;;;5019046;28;20050;-67
2023/09/20 06:57:18;;;;;;;0.03;0.03;;;;;;;;;;5017390;28;20057;-68
2023/09/20 06:59:46;;;;;;;0.08;0.08;;;;;;;;;;5019430;28;20048;-69
2023/09/20 07:02:16;;;;;;;0.30;0.22;;;;;;;;;;5016970;28;20428;-69
2023/09/20 07:04:44;;;;;;;0.10;0.10;;;;;;;;;;5016371;28;20050;-69
2023/09/20 07:07:12;;;;;;;0.00;0.00;;;;;;;;;;5018026;28;20042;-68
2023/09/20 07:09:40;;;;;;;1.17;1.17;;;;;;;;;;5015712;28;20080;-68
2023/09/20 07:12:09;;;;;;;1.48;0.20;;;;;;;;;;5016595;28;20458;-68
2023/09/20 07:14:37;;;;;;;0.00;0.00;;;;;;;;;;5020547;28;20459;-68
2023/09/20 07:17:07;;;;;;;0.08;0.08;;;;;;;;;;5015092;28;20511;-68
2023/09/20 07:19:36;;;;;;;10.15;9.55;;;;;;;;;;5018989;28;20050;-68
2023/09/20 07:22:05;;;;;;;24.20;22.95;;;;;;;;;;5011512;28;20316;-69
2023/09/20 07:24:35;;;;;;;4.15;3.95;;;;;;;;;;5022431;28;20519;-68
2023/09/20 07:27:03;;;;;;;0.00;0.00;;;;;;;;;;5012193;28;20057;-68
2023/09/20 07:29:39;;;;;;;0.00;0.00;;;;;;;;;;5021445;28;20073;-68
2023/09/20 07:32:08;;;;;;;0.35;0.35;;;;;;;;;;5012895;28;20427;-70
2023/09/20 07:34:35;;;;;;;0.00;0.00;;;;;;;;;;5015030;28;20136;-68
2023/09/20 07:37:03;;;;;;;0.10;0.10;;;;;;;;;;5021767;28;20579;-69
2023/09/20 07:39:31;;;;;;;0.00;0.00;;;;;;;;;;5012581;28;20530;-69
2023/09/20 07:41:58;;;;;;;0.00;0.00;;;;;;;;;;5019850;28;20668;-69
2023/09/20 07:44:31;;;;;;;0.00;0.00;;;;;;;;;;5015947;28;20128;-68
2023/09/20 07:46:59;;;;;;;0.38;0.38;;;;;;;;;;5019711;28;20482;-69
2023/09/20 07:49:27;;;;;;;0.08;0.08;;;;;;;;;;5021532;28;20072;-69
2023/09/20 07:51:54;;;;;;;1.20;1.15;;;;;;;;;;5018806;28;20042;-71
2023/09/20 07:54:22;;;;;;;0.00;0.00;;;;;;;;;;5020099;28;20050;-71
2023/09/20 07:56:52;;;;;;;0.10;0.10;;;;;;;;;;5013838;28;20052;-69
2023/09/20 07:59:25;;;;;;;4.15;3.95;;;;;;;;;;5018164;28;20108;-71
2023/09/20 08:01:54;;;;;;;0.00;0.00;;;;;;;;;;5022746;28;20491;-69
2023/09/20 08:04:23;;;;;;;0.00;0.00;;;;;;;;;;5025371;28;20056;-68
2023/09/20 08:06:50;;;;;;;0.10;0.10;;;;;;;;;;5028994;28;20102;-70
2023/09/20 08:09:18;;;;;;;1.02;0.20;;;;;;;;;;5023706;28;20085;-68
2023/09/20 08:11:46;;;;;;;0.55;0.55;;;;;;;;;;5021954;28;20061;-69
2023/09/20 08:14:14;;;;;;;0.10;0.10;;;;;;;;;;5018861;28;20041;-70
2023/09/20 08:16:42;;;;;;;8.02;7.38;;;;;;;;;;5021821;28;20545;-68
2023/09/20 08:19:31;;;;;;;0.00;0.00;;;;;;;;;;5017627;28;20046;-69
2023/09/20 08:21:58;;;;;;;0.00;0.00;;;;;;;;;;5024868;28;20361;-68
2023/09/20 09:00:39;;;;;;;3.35;3.22;;;;;;;;;;5018113;28;20124;-70
2023/09/20 09:03:06;;;;;;;0.15;0.15;;;;;;;;;;5022197;28;20045;-69
2023/09/20 09:05:34;;;;;;;2.97;2.83;;;;;;;;;;5023020;28;20134;-69
2023/09/20 09:08:03;;;;;;;0.00;0.00;;;;;;;;;;5028509;28;20052;-69
2023/09/20 09:10:30;;;;;;;0.30;0.30;;;;;;;;;;5014274;28;20049;-68
2023/09/20 09:12:58;;;;;;;0.05;0.05;;;;;;;;;;5020080;28;20058;-69
2023/09/20 09:15:27;;;;;;;0.00;0.00;;;;;;;;;;5021583;28;20077;-69
2023/09/20 09:17:55;;;;;;;0.00;0.00;;;;;;;;;;4999258;28;20050;-69
2023/09/20 09:20:23;;;;;;;0.00;0.00;;;;;;;;;;5018386;28;20454;-69
2023/09/20 09:22:51;;;;;;;0.00;0.00;;;;;;;;;;5020143;28;20056;-67
2023/09/20 09:25:20;;;;;;;0.00;0.00;;;;;;;;;;5026414;28;20133;-67
2023/09/20 09:27:47;;;;;;;0.00;0.00;;;;;;;;;;5018897;28;20144;-68
2023/09/20 09:30:16;;;;;;;0.00;0.00;;;;;;;;;;5017115;28;20136;-68
2023/09/20 09:32:46;;;;;;;6.88;6.40;;;;;;;;;;5016833;28;21607;-68
2023/09/20 09:35:21;;;;;;;0.17;0.17;;;;;;;;;;5020874;28;20038;-69
2023/09/20 09:38:07;;;;;;;0.00;0.00;;;;;;;;;;5020877;28;20311;-70
2023/09/20 09:40:50;;;;;;;0.00;0.00;;;;;;;;;;5019454;28;20053;-70
2023/09/20 09:43:18;;;;;;;11.55;7.97;;;;;;;;;;5022091;28;20141;-69
2023/09/20 09:45:49;;;;;;;0.00;0.00;;;;;;;;;;5022473;28;20067;-70
2023/09/20 09:48:18;;;;;;;0.00;0.00;;;;;;;;;;5021200;28;20239;-70
2023/09/20 09:50:47;;;;;;;0.00;0.00;;;;;;;;;;5018598;28;20428;-70
2023/09/20 09:53:15;;;;;;;0.00;0.00;;;;;;;;;;5016522;28;20060;-68
2023/09/20 09:55:43;;;;;;;0.00;0.00;;;;;;;;;;5021884;28;20123;-69
2023/09/20 09:58:11;;;;;;;1.90;1.80;;;;;;;;;;5022461;28;20053;-71
2023/09/20 10:00:40;;;;;;;0.00;0.00;;;;;;;;;;5020890;28;20049;-70
2023/09/20 10:03:11;;;;;;;0.00;0.00;;;;;;;;;;5018921;28;20507;-70
2023/09/20 10:05:42;;;;;;;0.05;0.05;;;;;;;;;;5019696;28;20061;-69
2023/09/20 10:08:13;;;;;;;0.20;0.20;;;;;;;;;;5021009;28;20060;-70
2023/09/20 10:10:41;;;;;;;0.00;0.00;;;;;;;;;;5022961;28;20099;-70
2023/09/20 10:13:14;;;;;;;0.00;0.00;;;;;;;;;;5017394;28;20195;-70
2023/09/20 10:15:43;;;;;;;0.00;0.00;;;;;;;;;;5016505;28;20049;-69
2023/09/20 10:18:11;;;;;;;0.32;0.32;;;;;;;;;;5021525;28;20570;-70
2023/09/20 10:21:04;;;;;;;0.05;0.05;;;;;;;;;;5017796;28;20048;-70
2023/09/20 10:23:34;;;;;;;0.00;0.00;;;;;;;;;;5013152;28;20395;-69
2023/09/20 10:26:02;;;;;;;0.00;0.00;;;;;;;;;;5017032;28;20141;-68
2023/09/20 10:28:37;;;;;;;0.00;0.00;;;;;;;;;;5017511;28;20133;-69
2023/09/20 10:31:05;;;;;;;0.10;0.10;;;;;;;;;;5017811;28;20057;-69
2023/09/20 10:33:45;;;;;;;3.72;1.85;;;;;;;;;;5019000;28;20499;-69
2023/09/20 10:36:20;;;;;;;0.00;0.00;;;;;;;;;;5011335;28;20060;-71
2023/09/20 10:38:49;;;;;;;0.35;0.10;;;;;;;;;;5017835;28;20045;-71
2023/09/20 10:41:17;;;;;;;0.00;0.00;;;;;;;;;;5024726;28;20057;-70
2023/09/20 10:43:49;;;;;;;0.00;0.00;;;;;;;;;;5016656;28;20049;-70
2023/09/20 10:46:18;;;;;;;0.00;0.00;;;;;;;;;;5006048;28;20137;-69
2023/09/20 10:48:50;;;;;;;0.00;0.00;;;;;;;;;;5014230;28;20104;-69
2023/09/20 10:51:36;;;;;;;0.00;0.00;;;;;;;;;;5001928;28;20164;-67
2023/09/20 10:54:18;;;;;;;0.00;0.00;;;;;;;;;;5011485;28;20056;-68
2023/09/20 10:56:51;;;;;;;0.00;0.00;;;;;;;;;;5015852;28;20057;-69
2023/09/20 10:59:22;;;;;;;0.00;0.00;;;;;;;;;;5017341;28;20057;-69
2023/09/20 11:01:53;;;;;;;0.65;0.55;;;;;;;;;;5013305;28;20056;-69
2023/09/20 11:04:21;;;;;;;0.00;0.00;;;;;;;;;;5014021;28;20050;-68
2023/09/20 11:06:49;;;;;;;0.00;0.00;;;;;;;;;;5009447;28;20603;-68
2023/09/20 11:09:16;;;;;;;0.10;0.10;;;;;;;;;;5018816;28;20049;-69
2023/09/20 11:11:44;;;;;;;0.00;0.00;;;;;;;;;;5009929;28;20842;-69
2023/09/20 11:14:14;;;;;;;0.05;0.05;;;;;;;;;;5009756;28;20302;-69
2023/09/20 11:16:44;;;;;;;1.00;1.00;;;;;;;;;;5012830;28;20130;-70
2023/09/20 11:19:12;;;;;;;0.00;0.00;;;;;;;;;;5019416;28;20045;-70
2023/09/20 11:21:43;;;;;;;0.10;0.10;;;;;;;;;;5015362;28;20045;-70
2023/09/20 11:24:10;;;;;;;0.10;0.10;;;;;;;;;;5014650;28;20038;-68
2023/09/20 11:26:47;;;;;;;0.00;0.00;;;;;;;;;;5020244;28;20050;-70
2023/09/20 11:29:16;;;;;;;0.00;0.00;;;;;;;;;;5017688;28;20080;-69
2023/09/20 11:31:48;;;;;;;0.05;0.05;;;;;;;;;;5023780;28;20054;-69
2023/09/20 11:34:17;;;;;;;0.00;0.00;;;;;;;;;;5020946;28;20451;-70
2023/09/20 11:36:45;;;;;;;0.00;0.00;;;;;;;;;;5025157;28;20060;-69
2023/09/20 11:39:17;;;;;;;0.00;0.00;;;;;;;;;;5022279;28;20504;-69
2023/09/20 11:41:45;;;;;;;0.03;0.03;;;;;;;;;;5030510;28;20572;-69
2023/09/20 11:44:13;;;;;;;0.00;0.00;;;;;;;;;;5025833;28;20379;-69
2023/09/20 11:46:40;;;;;;;0.15;0.15;;;;;;;;;;5022085;28;20507;-69
2023/09/20 11:49:11;;;;;;;0.00;0.00;;;;;;;;;;5022229;28;20450;-66
2023/09/20 11:51:40;;;;;;;0.00;0.00;;;;;;;;;;5024477;28;20057;-69
2023/09/20 11:54:10;;;;;;;0.03;0.03;;;;;;;;;;5024029;28;20046;-70
2023/09/20 11:56:38;;;;;;;0.00;0.00;;;;;;;;;;5014902;28;20046;-67
2023/09/20 11:59:06;;;;;;;0.00;0.00;;;;;;;;;;5010727;28;20073;-68
2023/09/20 12:01:38;;;;;;;0.00;0.00;;;;;;;;;;5024396;28;20491;-69
2023/09/20 12:04:05;;;;;;;0.00;0.00;;;;;;;;;;5019989;28;20049;-68
2023/09/20 12:06:33;;;;;;;0.00;0.00;;;;;;;;;;5018139;28;20523;-68
2023/09/20 12:09:01;;;;;;;0.05;0.05;;;;;;;;;;5019737;28;20691;-69
2023/09/20 12:11:28;;;;;;;0.00;0.00;;;;;;;;;;5019235;28;20561;-69
2023/09/20 12:13:56;;;;;;;0.00;0.00;;;;;;;;;;5020132;28;20511;-68
2023/09/20 12:16:24;;;;;;;0.00;0.00;;;;;;;;;;5023400;28;20046;-68
2023/09/20 12:18:54;;;;;;;0.00;0.00;;;;;;;;;;5017995;28;20495;-69
2023/09/20 12:21:22;;;;;;;0.00;0.00;;;;;;;;;;5017399;28;20056;-69
2023/09/20 12:23:50;;;;;;;0.00;0.00;;;;;;;;;;5019175;28;20050;-70
2023/09/20 12:26:17;;;;;;;0.00;0.00;;;;;;;;;;5027447;28;20053;-68
2023/09/20 12:28:45;;;;;;;0.00;0.00;;;;;;;;;;5014719;28;20067;-68
2023/09/20 12:31:13;;;;;;;0.20;0.20;;;;;;;;;;5019596;28;20619;-69
2023/09/20 12:33:41;;;;;;;0.00;0.00;;;;;;;;;;5020956;28;20065;-70
2023/09/20 12:36:11;;;;;;;0.00;0.00;;;;;;;;;;5021269;28;20068;-69
2023/09/20 12:38:39;;;;;;;0.00;0.00;;;;;;;;;;5018661;28;20050;-69
2023/09/20 12:41:09;;;;;;;0.20;0.20;;;;;;;;;;5014509;28;20054;-69
2023/09/20 12:43:37;;;;;;;0.00;0.00;;;;;;;;;;5020559;28;20526;-73
2023/09/20 12:46:06;;;;;;;0.00;0.00;;;;;;;;;;5024733;28;20042;-70
2023/09/20 12:48:36;;;;;;;0.00;0.00;;;;;;;;;;5025060;28;20056;-70
2023/09/20 12:51:05;;;;;;;0.00;0.00;;;;;;;;;;5019273;28;20049;-70
2023/09/20 12:53:32;;;;;;;0.00;0.00;;;;;;;;;;5021755;28;20053;-69
2023/09/20 12:56:01;;;;;;;0.00;0.00;;;;;;;;;;5019363;28;20046;-68
2023/09/20 12:58:29;;;;;;;0.85;0.85;;;;;;;;;;5016637;28;20092;-70
2023/09/20 13:00:57;;;;;;;0.00;0.00;;;;;;;;;;5017247;28;20434;-68
2023/09/20 13:03:28;;;;;;;0.03;0.03;;;;;;;;;;5011381;28;20124;-69
2023/09/20 13:05:56;;;;;;;0.00;0.00;;;;;;;;;;5003760;28;20056;-70
2023/09/20 13:08:24;;;;;;;0.00;0.00;;;;;;;;;;5008115;28;20046;-68
2023/09/20 13:10:52;;;;;;;0.00;0.00;;;;;;;;;;5021923;28;20049;-69
2023/09/20 13:13:25;;;;;;;0.00;0.00;;;;;;;;;;5024454;28;20123;-69
2023/09/20 13:15:53;;;;;;;1.30;1.30;;;;;;;;;;5012998;28;20045;-70
2023/09/20 13:18:21;;;;;;;0.00;0.00;;;;;;;;;;5020988;28;20072;-69
2023/09/20 13:20:49;;;;;;;0.00;0.00;;;;;;;;;;5019056;28;20045;-69
2023/09/20 13:23:16;;;;;;;0.00;0.00;;;;;;;;;;5021861;28;20099;-67
2023/09/20 13:25:44;;;;;;;0.00;0.00;;;;;;;;;;5015414;28;20524;-67
2023/09/20 13:28:12;;;;;;;0.00;0.00;;;;;;;;;;5016156;28;20104;-69
2023/09/20 13:30:41;;;;;;;0.00;0.00;;;;;;;;;;5018238;28;20056;-68
2023/09/20 13:33:10;;;;;;;0.00;0.00;;;;;;;;;;5019748;28;20171;-68
2023/09/20 13:35:39;;;;;;;0.00;0.00;;;;;;;;;;5014954;28;20053;-68
2023/09/20 13:38:07;;;;;;;0.00;0.00;;;;;;;;;;5018191;28;20591;-68
2023/09/20 13:40:36;;;;;;;0.00;0.00;;;;;;;;;;5016291;28;20068;-68
2023/09/20 13:43:03;;;;;;;0.10;0.10;;;;;;;;;;5009028;28;20068;-70
2023/09/20 13:45:32;;;;;;;0.00;0.00;;;;;;;;;;5015748;28;20049;-69
2023/09/20 13:48:00;;;;;;;0.15;0.10;;;;;;;;;;5011172;28;20511;-69
2023/09/20 13:50:28;;;;;;;0.00;0.00;;;;;;;;;;5015249;28;20046;-68
2023/09/20 13:52:57;;;;;;;0.00;0.00;;;;;;;;;;5015761;28;20479;-70
2023/09/20 13:55:24;;;;;;;0.00;0.00;;;;;;;;;;5012378;28;20065;-69
2023/09/20 13:58:00;;;;;;;0.00;0.00;;;;;;;;;;5014643;28;20049;-70
2023/09/20 14:00:28;;;;;;;0.00;0.00;;;;;;;;;;5015106;28;20052;-69
2023/09/20 14:02:57;;;;;;;0.08;0.08;;;;;;;;;;5013081;28;20046;-69
2023/09/20 14:05:25;;;;;;;0.00;0.00;;;;;;;;;;5011057;28;20048;-71
2023/09/20 14:07:57;;;;;;;0.00;0.00;;;;;;;;;;5008896;28;20056;-70
2023/09/20 14:10:25;;;;;;;0.00;0.00;;;;;;;;;;5016303;28;20399;-69
2023/09/20 14:12:53;;;;;;;0.00;0.00;;;;;;;;;;5010943;28;20076;-69
2023/09/20 14:15:25;;;;;;;0.00;0.00;;;;;;;;;;5016510;28;20053;-68
2023/09/20 14:17:56;;;;;;;0.00;0.00;;;;;;;;;;5038491;28;20597;-67
2023/09/20 14:20:25;;;;;;;0.00;0.00;;;;;;;;;;5018917;28;20049;-66
2023/09/20 14:22:53;;;;;;;0.35;0.20;;;;;;;;;;5018104;28;20057;-70
2023/09/20 14:25:25;;;;;;;0.00;0.00;;;;;;;;;;5014926;28;20095;-68
2023/09/20 14:27:53;;;;;;;0.10;0.10;;;;;;;;;;5013904;28;20046;-70
2023/09/20 14:30:21;;;;;;;0.10;0.10;;;;;;;;;;5024070;28;20444;-68
2023/09/20 14:32:49;;;;;;;0.00;0.00;;;;;;;;;;5030715;22;20042;-74
2023/09/20 14:35:17;;;;;;;0.10;0.10;;;;;;;;;;5005047;28;20045;-74
2023/09/20 14:37:47;;;;;;;0.10;0.10;;;;;;;;;;5000469;28;20050;-74
2023/09/20 14:40:18;;;;;;;0.00;0.00;;;;;;;;;;5003702;28;20487;-74
2023/09/20 14:42:51;;;;;;;0.00;0.00;;;;;;;;;;5003969;28;20409;-73
2023/09/20 14:45:24;;;;;;;0.00;0.00;;;;;;;;;;5003114;28;20046;-74
2023/09/20 14:47:52;;;;;;;0.00;0.00;;;;;;;;;;5008001;28;20053;-74
2023/09/20 14:50:21;;;;;;;0.00;0.00;;;;;;;;;;5007139;28;20503;-75
2023/09/20 14:52:49;;;;;;;0.10;0.10;;;;;;;;;;5006209;28;20121;-74
2023/09/20 14:55:18;;;;;;;0.00;0.00;;;;;;;;;;5006262;28;20085;-74
2023/09/20 14:57:47;;;;;;;0.10;0.10;;;;;;;;;;5005113;28;20054;-74
2023/09/20 15:00:21;;;;;;;0.00;0.00;;;;;;;;;;5001385;28;20128;-74
2023/09/20 15:02:50;;;;;;;0.38;0.38;;;;;;;;;;5003174;28;20046;-74
2023/09/20 15:05:19;;;;;;;0.00;0.00;;;;;;;;;;5004379;28;20153;-75
2023/09/20 15:07:53;;;;;;;0.00;0.00;;;;;;;;;;5007393;28;20046;-75
2023/09/20 15:10:22;;;;;;;0.00;0.00;;;;;;;;;;5009990;28;20057;-74
2023/09/20 15:12:57;;;;;;;0.00;0.00;;;;;;;;;;5008898;28;20064;-74
2023/09/20 15:15:26;;;;;;;0.00;0.00;;;;;;;;;;5009657;28;20054;-75
2023/09/20 15:17:53;;;;;;;0.00;0.00;;;;;;;;;;5010160;28;20077;-74
2023/09/20 15:20:21;;;;;;;0.00;0.00;;;;;;;;;;5009176;28;20046;-74
2023/09/20 15:22:49;;;;;;;0.00;0.00;;;;;;;;;;5010347;28;20050;-75
2023/09/20 15:25:18;;;;;;;0.00;0.00;;;;;;;;;;5008236;28;20133;-75
2023/09/20 15:27:46;;;;;;;0.30;0.30;;;;;;;;;;5010309;28;20483;-75
2023/09/20 15:30:14;;;;;;;0.00;0.00;;;;;;;;;;5009257;28;20476;-74
2023/09/20 15:32:44;;;;;;;0.00;0.00;;;;;;;;;;5005536;28;20042;-75